Météo Nord-Pas-de-Calais   La météo au plus près de chez vous

Station météorologique

Observations météo à Embrun (05046)

05046001 873 m Dernier relevé à 18:48
27.2°C
Humidité 31 % Vent 14.8 km/h

Journée consultée

Mercredi 2 Septembre 2026

Synthèse de la journée

Périodes de référence en UTC

Température maximale

28.9°C

à 15:12

06h 06h

Température minimale

12.9°C

à 05:24

18h 18h

Rafale maximale

36 km/h

à 15:54

00h 00h

Précipitations

0 mm

Cumul quotidien

06h 06h

Ensoleillement

8h 46 mins

Durée quotidienne

00h 00h

Graphiques de la journée

Heure locale Réduire

Données détaillées

Relevés météo

Pas de 6 minutes Afficher les relevés infra-horaires
Relevés météo détaillés à Embrun pour le Mercredi 2 Septembre 2026
Heure Température °C Point de rosée °C Humidité % Vent moyen (raf.), km/h Précipitations mm Température à 10 cm °C Température à 20 cm °C Température à 50 cm °C Température à 100 cm °C Hauteur neige cm Ensoleillement min Rayonnement global W/m²
18:48 27.2 °C 9.5 °C 33 % 11 km/h (27 km/h) 0 mm0 mm 22.2 °C 20.6 °C 19.7 °C 19.5 °C 0 cm 2 min 38.5 W/m²
18:42 27.4 °C 9.7 °C 33 % 11 km/h (27 km/h) 0 mm0 mm 22.2 °C 20.6 °C 19.7 °C 19.5 °C 0 cm 6 min 61.8 W/m²
18:36 27.5 °C 9.3 °C 32 % 10 km/h (22 km/h) 0 mm0 mm 22.2 °C 20.5 °C 19.7 °C 19.5 °C 0 cm 6 min 72.9 W/m²
18:30 27.4 °C 9.2 °C 32 % 12 km/h (24 km/h) 0 mm0 mm 22.2 °C 20.5 °C 19.7 °C 19.5 °C 0 cm 2 min 54.3 W/m²
18:24 27.6 °C 9.4 °C 32 % 12 km/h (24 km/h) 0 mm0 mm 22.1 °C 20.5 °C 19.7 °C 19.5 °C 0 cm 1 min 48.2 W/m²
18:18 28 °C 9.3 °C 31 % 13 km/h (30 km/h) 0 mm0 mm 22.1 °C 20.5 °C 19.8 °C 19.5 °C 0 cm 6 min 97 W/m²
18:12 28.1 °C 9.4 °C 31 % 15 km/h (28 km/h) 0 mm0 mm 22.1 °C 20.4 °C 19.8 °C 19.5 °C 0 cm 6 min 110.3 W/m²
18:06 28 °C 9.3 °C 31 % 14 km/h (28 km/h) 0 mm0 mm 22 °C 20.4 °C 19.8 °C 19.5 °C 0 cm 6 min 105.7 W/m²
18:00 28.2 °C 9.5 °C 31 % 13 km/h (25 km/h) 0 mm0 mm 22 °C 20.4 °C 19.8 °C 19.5 °C 0 cm 6 min 94.6 W/m²
17:54 28.3 °C 9.6 °C 31 % 13 km/h (26 km/h) 0 mm0 mm 22 °C 20.3 °C 19.8 °C 19.5 °C 0 cm 6 min 117.2 W/m²
17:48 28.2 °C 9.5 °C 31 % 15 km/h (30 km/h) 0 mm0 mm 21.9 °C 20.3 °C 19.8 °C 19.5 °C 0 cm 6 min 121.9 W/m²
17:42 28.1 °C 9.4 °C 31 % 15 km/h (30 km/h) 0 mm0 mm 21.9 °C 20.3 °C 19.8 °C 19.5 °C 0 cm 6 min 115.7 W/m²
17:36 28.3 °C 9.6 °C 31 % 14 km/h (26 km/h) 0 mm0 mm 21.8 °C 20.2 °C 19.8 °C 19.5 °C 0 cm 6 min 123.4 W/m²
17:30 28.3 °C 9.6 °C 31 % 14 km/h (28 km/h) 0 mm0 mm 21.8 °C 20.2 °C 19.8 °C 19.5 °C 0 cm 6 min 131.9 W/m²
17:24 28.4 °C 9.6 °C 31 % 13 km/h (28 km/h) 0 mm0 mm 21.7 °C 20.2 °C 19.8 °C 19.5 °C 0 cm 6 min 139.4 W/m²
17:18 28.4 °C 10.1 °C 32 % 13 km/h (27 km/h) 0 mm0 mm 21.7 °C 20.2 °C 19.8 °C 19.5 °C 0 cm 6 min 137.7 W/m²
17:12 28.3 °C 10 °C 32 % 16 km/h (28 km/h) 0 mm0 mm 21.6 °C 20.1 °C 19.8 °C 19.5 °C 0 cm 6 min 149.5 W/m²
17:06 28.2 °C 9.5 °C 31 % 17 km/h (28 km/h) 0 mm0 mm 21.6 °C 20.1 °C 19.8 °C 19.5 °C 0 cm 6 min 154.4 W/m²
17:00 28.4 °C 10.1 °C 32 % 17 km/h (34 km/h) 0 mm0 mm 21.5 °C 20 °C 19.8 °C 19.5 °C 0 cm 6 min 160.4 W/m²
16:54 28.4 °C 9.6 °C 31 % 17 km/h (34 km/h) 0 mm0 mm 21.5 °C 20 °C 19.8 °C 19.5 °C 0 cm 6 min 168.3 W/m²
16:48 28.4 °C 10.1 °C 32 % 16 km/h (32 km/h) 0 mm0 mm 21.4 °C 20 °C 19.8 °C 19.5 °C 0 cm 6 min 172.6 W/m²
16:42 28.4 °C 9.6 °C 31 % 15 km/h (32 km/h) 0 mm0 mm 21.3 °C 19.9 °C 19.8 °C 19.5 °C 0 cm 6 min 174.6 W/m²
16:36 28.6 °C 9.8 °C 31 % 15 km/h (30 km/h) 0 mm0 mm 21.3 °C 19.9 °C 19.8 °C 19.5 °C 0 cm 6 min 182 W/m²
16:30 28.5 °C 9.2 °C 30 % 15 km/h (29 km/h) 0 mm0 mm 21.2 °C 19.9 °C 19.8 °C 19.5 °C 0 cm 6 min 185.1 W/m²
16:24 28.9 °C 9.6 °C 30 % 13 km/h (26 km/h) 0 mm0 mm 21.1 °C 19.9 °C 19.8 °C 19.5 °C 0 cm 6 min 192.7 W/m²
16:18 28.8 °C 9.5 °C 30 % 14 km/h (28 km/h) 0 mm0 mm 21.1 °C 19.8 °C 19.8 °C 19.5 °C 0 cm 6 min 197.2 W/m²
16:12 28.4 °C 9.6 °C 31 % 18 km/h (31 km/h) 0 mm0 mm 21 °C 19.8 °C 19.8 °C 19.5 °C 0 cm 6 min 201.3 W/m²
16:06 28.2 °C 9 °C 30 % 21 km/h (32 km/h) 0 mm0 mm 20.9 °C 19.8 °C 19.8 °C 19.5 °C 0 cm 6 min 206.1 W/m²
16:00 28.3 °C 9.1 °C 30 % 18 km/h (36 km/h) 0 mm0 mm 20.8 °C 19.8 °C 19.8 °C 19.5 °C 0 cm 6 min 209.8 W/m²
15:54 28.5 °C 8.7 °C 29 % 16 km/h (36 km/h) 0 mm0 mm 20.8 °C 19.7 °C 19.8 °C 19.5 °C 0 cm 6 min 214.2 W/m²
15:48 28.6 °C 9.3 °C 30 % 17 km/h (30 km/h) 0 mm0 mm 20.7 °C 19.7 °C 19.8 °C 19.5 °C 0 cm 6 min 217.9 W/m²
15:42 28.4 °C 9.1 °C 30 % 17 km/h (30 km/h) 0 mm0 mm 20.6 °C 19.7 °C 19.8 °C 19.5 °C 0 cm 6 min 222.3 W/m²
15:36 28.6 °C 9.3 °C 30 % 15 km/h (30 km/h) 0 mm0 mm 20.6 °C 19.7 °C 19.8 °C 19.5 °C 0 cm 6 min 227.6 W/m²
15:30 28.6 °C 9.3 °C 30 % 15 km/h (28 km/h) 0 mm0 mm 20.5 °C 19.6 °C 19.8 °C 19.5 °C 0 cm 6 min 232 W/m²
15:24 28.5 °C 8.7 °C 29 % 16 km/h (29 km/h) 0 mm0 mm 20.4 °C 19.6 °C 19.9 °C 19.5 °C 0 cm 6 min 234.2 W/m²
15:18 28.5 °C 8.7 °C 29 % 15 km/h (30 km/h) 0 mm0 mm 20.3 °C 19.6 °C 19.8 °C 19.5 °C 0 cm 6 min 237 W/m²
15:12 28.9 °C 9.1 °C 29 % 15 km/h (29 km/h) 0 mm0 mm 20.3 °C 19.6 °C 19.8 °C 19.5 °C 0 cm 6 min 249.8 W/m²
15:06 28.7 °C 7.8 °C 27 % 15 km/h (28 km/h) 0 mm0 mm 20.2 °C 19.6 °C 19.9 °C 19.5 °C 0 cm 6 min 251.8 W/m²
15:00 28.8 °C 8.5 °C 28 % 13 km/h (28 km/h) 0 mm0 mm 20.1 °C 19.5 °C 19.9 °C 19.5 °C 0 cm 6 min 253.6 W/m²
14:54 28.6 °C 8.3 °C 28 % 14 km/h (28 km/h) 0 mm0 mm 20 °C 19.5 °C 19.9 °C 19.5 °C 0 cm 6 min 249.7 W/m²
14:48 28.4 °C 8.6 °C 29 % 15 km/h (26 km/h) 0 mm0 mm 20 °C 19.5 °C 19.9 °C 19.5 °C 0 cm 6 min 253 W/m²
14:42 28.5 °C 9.2 °C 30 % 14 km/h (27 km/h) 0 mm0 mm 19.9 °C 19.5 °C 19.9 °C 19.5 °C 0 cm 6 min 254.6 W/m²
14:36 28.5 °C 10.2 °C 32 % 16 km/h (33 km/h) 0 mm0 mm 19.8 °C 19.4 °C 19.9 °C 19.5 °C 0 cm 6 min 254.6 W/m²
14:30 28.2 °C 8.5 °C 29 % 15 km/h (33 km/h) 0 mm0 mm 19.8 °C 19.4 °C 19.9 °C 19.5 °C 0 cm 6 min 256.6 W/m²
14:24 28.2 °C 8 °C 28 % 16 km/h (34 km/h) 0 mm0 mm 19.7 °C 19.4 °C 19.9 °C 19.5 °C 0 cm 6 min 257.7 W/m²
14:18 27.9 °C 8.7 °C 30 % 17 km/h (34 km/h) 0 mm0 mm 19.6 °C 19.4 °C 19.9 °C 19.5 °C 0 cm 6 min 258.5 W/m²
14:12 28 °C 9.3 °C 31 % 15 km/h (28 km/h) 0 mm0 mm 19.5 °C 19.4 °C 19.9 °C 19.5 °C 0 cm 6 min 258.4 W/m²
14:06 27.7 °C 10.4 °C 34 % 15 km/h (27 km/h) 0 mm0 mm 19.5 °C 19.4 °C 19.9 °C 19.5 °C 0 cm 6 min 249.3 W/m²
14:00 27.5 °C 9.8 °C 33 % 14 km/h (27 km/h) 0 mm0 mm 19.4 °C 19.4 °C 19.9 °C 19.5 °C 0 cm 4 min 232.8 W/m²
13:54 27 °C 10.7 °C 36 % 10 km/h (23 km/h) 0 mm0 mm 19.3 °C 19.4 °C 19.9 °C 19.5 °C 0 cm 4 min 220.2 W/m²
13:48 26.9 °C 10.1 °C 35 % 10 km/h (18 km/h) 0 mm0 mm 19.3 °C 19.4 °C 19.9 °C 19.5 °C 0 cm 0 min 151.6 W/m²
13:42 27.1 °C 9.4 °C 33 % 10 km/h (19 km/h) 0 mm0 mm 19.2 °C 19.4 °C 19.9 °C 19.5 °C 0 cm 2 min 205.8 W/m²
13:36 26.2 °C 9.1 °C 34 % 13 km/h (24 km/h) 0 mm0 mm 19.1 °C 19.4 °C 19.9 °C 19.5 °C 0 cm 0 min 187 W/m²
13:30 26.1 °C 8.1 °C 32 % 15 km/h (25 km/h) 0 mm0 mm 19.1 °C 19.3 °C 19.9 °C 19.5 °C 0 cm 5 min 272.2 W/m²
13:24 25.7 °C 7.8 °C 32 % 15 km/h (25 km/h) 0 mm0 mm 19 °C 19.3 °C 19.9 °C 19.5 °C 0 cm 6 min 255.2 W/m²
13:18 25.1 °C 7.2 °C 32 % 15 km/h (22 km/h) 0 mm0 mm 18.9 °C 19.3 °C 19.9 °C 19.5 °C 0 cm 3 min 202.9 W/m²
13:12 24.9 °C 7.5 °C 33 % 15 km/h (23 km/h) 0 mm0 mm 18.9 °C 19.3 °C 19.9 °C 19.5 °C 0 cm 3 min 196.5 W/m²
13:06 25.3 °C 7.9 °C 33 % 14 km/h (23 km/h) 0 mm0 mm 18.8 °C 19.3 °C 19.9 °C 19.5 °C 0 cm 4 min 212.3 W/m²
13:00 25.2 °C 10.3 °C 39 % 15 km/h (23 km/h) 0 mm0 mm 18.8 °C 19.3 °C 19.9 °C 19.5 °C 0 cm 6 min 274.6 W/m²
12:54 25.1 °C 7.7 °C 33 % 14 km/h (23 km/h) 0 mm0 mm 18.7 °C 19.3 °C 19.9 °C 19.5 °C 0 cm 6 min 283.5 W/m²
12:48 24.5 °C 7.2 °C 33 % 12 km/h (20 km/h) 0 mm0 mm 18.6 °C 19.3 °C 19.9 °C 19.5 °C 0 cm 6 min 276.8 W/m²
12:42 24.4 °C 8.8 °C 37 % 13 km/h (19 km/h) 0 mm0 mm 18.6 °C 19.3 °C 19.9 °C 19.5 °C 0 cm 6 min 253.8 W/m²
12:36 23.8 °C 7.4 °C 35 % 14 km/h (19 km/h) 0 mm0 mm 18.6 °C 19.3 °C 19.9 °C 19.5 °C 0 cm 6 min 251.3 W/m²
12:30 23.5 °C 7.1 °C 35 % 12 km/h (19 km/h) 0 mm0 mm 18.5 °C 19.4 °C 19.9 °C 19.5 °C 0 cm 6 min 249.6 W/m²
12:24 23.5 °C 8 °C 37 % 9 km/h (16 km/h) 0 mm0 mm 18.5 °C 19.4 °C 19.9 °C 19.5 °C 0 cm 6 min 247.5 W/m²
12:18 23.4 °C 7.5 °C 36 % 9 km/h (17 km/h) 0 mm0 mm 18.4 °C 19.4 °C 19.9 °C 19.5 °C 0 cm 6 min 246 W/m²
12:12 24 °C 8 °C 36 % 8 km/h (15 km/h) 0 mm0 mm 18.4 °C 19.4 °C 19.9 °C 19.5 °C 0 cm 6 min 246.6 W/m²
12:06 24.5 °C 7.2 °C 33 % 6 km/h (14 km/h) 0 mm0 mm 18.3 °C 19.4 °C 20 °C 19.5 °C 0 cm 6 min 247.9 W/m²
12:00 24.2 °C 10.8 °C 43 % 5 km/h (16 km/h) 0 mm0 mm 18.3 °C 19.4 °C 20 °C 19.5 °C 0 cm 5 min 240.2 W/m²
11:54 23.1 °C 8 °C 38 % 5 km/h (9 km/h) 0 mm0 mm 18.3 °C 19.4 °C 20 °C 19.5 °C 0 cm 2 min 160.1 W/m²
11:48 23.2 °C 7.3 °C 36 % 6 km/h (10 km/h) 0 mm0 mm 18.3 °C 19.4 °C 20 °C 19.5 °C 0 cm 3 min 176.8 W/m²
11:42 23.2 °C 7.3 °C 36 % 6 km/h (11 km/h) 0 mm0 mm 18.2 °C 19.4 °C 20 °C 19.5 °C 0 cm 6 min 224.1 W/m²
11:36 23.1 °C 7.6 °C 37 % 6 km/h (12 km/h) 0 mm0 mm 18.2 °C 19.4 °C 20 °C 19.5 °C 0 cm 6 min 221.2 W/m²
11:30 22.6 °C 7.9 °C 39 % 7 km/h (12 km/h) 0 mm0 mm 18.2 °C 19.4 °C 20 °C 19.5 °C 0 cm 6 min 220.9 W/m²
11:24 22.1 °C 7.9 °C 40 % 6 km/h (11 km/h) 0 mm0 mm 18.2 °C 19.5 °C 20 °C 19.5 °C 0 cm 6 min 215.9 W/m²
11:18 21.5 °C 7.7 °C 41 % 6 km/h (13 km/h) 0 mm0 mm 18.2 °C 19.5 °C 20 °C 19.5 °C 0 cm 6 min 212.2 W/m²
11:12 21.3 °C 8.2 °C 43 % 8 km/h (13 km/h) 0 mm0 mm 18.2 °C 19.5 °C 20 °C 19.5 °C 0 cm 6 min 210.9 W/m²
11:06 21.1 °C 8 °C 43 % 8 km/h (14 km/h) 0 mm0 mm 18.2 °C 19.5 °C 20 °C 19.5 °C 0 cm 6 min 213.8 W/m²
11:00 20.5 °C 8.2 °C 45 % 9 km/h (14 km/h) 0 mm0 mm 18.2 °C 19.5 °C 20 °C 19.5 °C 0 cm 6 min 204.6 W/m²
10:54 19.6 °C 8.9 °C 50 % 8 km/h (14 km/h) 0 mm0 mm 18.2 °C 19.5 °C 20 °C 19.5 °C 0 cm 6 min 200.7 W/m²
10:48 18.7 °C 8.4 °C 51 % 9 km/h (18 km/h) 0 mm0 mm 18.2 °C 19.5 °C 20 °C 19.5 °C 0 cm 1 min 120 W/m²
10:42 18.3 °C 8.5 °C 53 % 9 km/h (18 km/h) 0 mm0 mm 18.2 °C 19.6 °C 20 °C 19.5 °C 0 cm 0 min 64.4 W/m²
10:36 18.4 °C 7.8 °C 50 % 9 km/h (14 km/h) 0 mm0 mm 18.2 °C 19.6 °C 20 °C 19.5 °C 0 cm 0 min 42.3 W/m²
10:30 18.8 °C 7.6 °C 48 % 10 km/h (15 km/h) 0 mm0 mm 18.2 °C 19.6 °C 20 °C 19.5 °C 0 cm 0 min 43.7 W/m²
10:24 19.5 °C 7.6 °C 46 % 10 km/h (21 km/h) 0 mm0 mm 18.2 °C 19.6 °C 20 °C 19.5 °C 0 cm 0 min 76 W/m²
10:18 19.9 °C 8.2 °C 47 % 11 km/h (21 km/h) 0 mm0 mm 18.2 °C 19.6 °C 20 °C 19.5 °C 0 cm 4 min 146.9 W/m²
10:12 19.8 °C 8.8 °C 49 % 14 km/h (21 km/h) 0 mm0 mm 18.2 °C 19.6 °C 20 °C 19.5 °C 0 cm 6 min 180.4 W/m²
10:06 19.7 °C 7.7 °C 46 % 14 km/h (22 km/h) 0 mm0 mm 18.2 °C 19.6 °C 20 °C 19.5 °C 0 cm 6 min 188.3 W/m²
10:00 19.4 °C 7.8 °C 47 % 12 km/h (22 km/h) 0 mm0 mm 18.2 °C 19.7 °C 20 °C 19.5 °C 0 cm 6 min 167.7 W/m²
09:54 19.3 °C 8.3 °C 49 % 9 km/h (16 km/h) 0 mm0 mm 18.3 °C 19.7 °C 20 °C 19.5 °C 0 cm 6 min 153.6 W/m²
09:48 18.7 °C 8.6 °C 52 % 10 km/h (17 km/h) 0 mm0 mm 18.3 °C 19.7 °C 20 °C 19.5 °C 0 cm 6 min 135.6 W/m²
09:42 18 °C 7.7 °C 51 % 12 km/h (19 km/h) 0 mm0 mm 18.3 °C 19.7 °C 20 °C 19.5 °C 0 cm 1 min 96.4 W/m²
09:36 18 °C 8 °C 52 % 11 km/h (19 km/h) 0 mm0 mm 18.3 °C 19.8 °C 20 °C 19.5 °C 0 cm 5 min 114.5 W/m²
09:30 17.7 °C 9.1 °C 57 % 12 km/h (18 km/h) 0 mm0 mm 18.3 °C 19.8 °C 20 °C 19.5 °C 0 cm 6 min 120.6 W/m²
09:24 16.9 °C 7.8 °C 55 % 12 km/h (17 km/h) 0 mm0 mm 18.3 °C 19.8 °C 20 °C 19.5 °C 0 cm 6 min 115.9 W/m²
09:18 16.4 °C 7.9 °C 57 % 12 km/h (22 km/h) 0 mm0 mm 18.4 °C 19.8 °C 20 °C 19.5 °C 0 cm 4 min 94.5 W/m²
09:12 16.2 °C 7.9 °C 58 % 14 km/h (22 km/h) 0 mm0 mm 18.4 °C 19.8 °C 20 °C 19.5 °C 0 cm 4 min 86.6 W/m²
09:06 16 °C 7.7 °C 58 % 14 km/h (21 km/h) 0 mm0 mm 18.4 °C 19.8 °C 20 °C 19.5 °C 0 cm 5 min 98.3 W/m²
09:00 15.8 °C 7.8 °C 59 % 13 km/h (19 km/h) 0 mm0 mm 18.5 °C 19.9 °C 20 °C 19.5 °C 0 cm 6 min 105.9 W/m²
08:54 15.2 °C 7.7 °C 61 % 13 km/h (18 km/h) 0 mm0 mm 18.5 °C 19.9 °C 20 °C 19.5 °C 0 cm 6 min 97.2 W/m²
08:48 14.8 °C 7.1 °C 60 % 12 km/h (19 km/h) 0 mm0 mm 18.5 °C 19.9 °C 20 °C 19.5 °C 0 cm 4 min 69.1 W/m²
08:42 14.5 °C 7.3 °C 62 % 10 km/h (17 km/h) 0 mm0 mm 18.5 °C 19.9 °C 20 °C 19.5 °C 0 cm 6 min 80.4 W/m²
08:36 14 °C 7.5 °C 65 % 9 km/h (14 km/h) 0 mm0 mm 18.6 °C 19.9 °C 20 °C 19.5 °C 0 cm 6 min 73.1 W/m²
08:30 13.3 °C 7.1 °C 66 % 10 km/h (15 km/h) 0 mm0 mm 18.6 °C 20 °C 20 °C 19.5 °C 0 cm 2 min 38.9 W/m²
08:24 13.8 °C 7.6 °C 66 % 11 km/h (23 km/h) 0 mm0 mm 18.6 °C 20 °C 20 °C 19.5 °C 0 cm 0 min 15.3 W/m²
08:18 14.1 °C 6.4 °C 60 % 12 km/h (23 km/h) 0 mm0 mm 18.6 °C 20 °C 20 °C 19.5 °C 0 cm 0 min 14.3 W/m²
08:12 13.5 °C 6.6 °C 63 % 12 km/h (17 km/h) 0 mm0 mm 18.7 °C 20 °C 20 °C 19.5 °C 0 cm 0 min 11 W/m²
08:06 13.2 °C 6.5 °C 64 % 11 km/h (16 km/h) 0 mm0 mm 18.7 °C 20 °C 20 °C 19.5 °C 0 cm 0 min 8 W/m²
08:00 13.4 °C 6.5 °C 63 % 10 km/h (14 km/h) 0 mm0 mm 18.7 °C 20 °C 20 °C 19.5 °C 0 cm 0 min 8.9 W/m²
07:54 13.5 °C 6.4 °C 62 % 10 km/h (15 km/h) 0 mm0 mm 18.7 °C 20.1 °C 20 °C 19.5 °C 0 cm 0 min 8.5 W/m²
07:48 13.7 °C 6.5 °C 62 % 10 km/h (16 km/h) 0 mm0 mm 18.8 °C 20.1 °C 20 °C 19.5 °C 0 cm 0 min 6.8 W/m²
07:42 13.7 °C 6.3 °C 61 % 11 km/h (18 km/h) 0 mm0 mm 18.8 °C 20.1 °C 20 °C 19.5 °C 0 cm 0 min 7.5 W/m²
07:36 13.5 °C 6.4 °C 62 % 12 km/h (18 km/h) 0 mm0 mm 18.8 °C 20.1 °C 20 °C 19.5 °C 0 cm 0 min 5.5 W/m²
07:30 13.4 °C 6.5 °C 63 % 12 km/h (18 km/h) 0 mm0 mm 18.9 °C 20.2 °C 20 °C 19.5 °C 0 cm 0 min 5.3 W/m²
07:24 13.4 °C 6.5 °C 63 % 12 km/h (21 km/h) 0 mm0 mm 18.9 °C 20.2 °C 20 °C 19.5 °C 0 cm 0 min 4.1 W/m²
07:18 13.4 °C 6 °C 61 % 9 km/h (17 km/h) 0 mm0 mm 18.9 °C 20.2 °C 20 °C 19.5 °C 0 cm 0 min 1.5 W/m²
07:12 13.3 °C 5.9 °C 61 % 9 km/h (15 km/h) 0 mm0 mm 18.9 °C 20.2 °C 20 °C 19.5 °C 0 cm 0 min 0 W/m²
07:06 13.7 °C 6.1 °C 60 % 10 km/h (23 km/h) 0 mm0 mm 19 °C 20.2 °C 20 °C 19.5 °C 0 cm 0 min 0 W/m²
07:00 13.9 °C 6.3 °C 60 % 10 km/h (23 km/h) 0 mm0 mm 19 °C 20.3 °C 20 °C 19.5 °C 0 cm 0 min 0 W/m²
06:54 13.3 °C 6.2 °C 62 % 9 km/h (14 km/h) 0 mm0 mm 19 °C 20.3 °C 20 °C 19.5 °C 0 cm 0 min 0 W/m²
06:48 13.6 °C 6 °C 60 % 10 km/h (16 km/h) 0 mm0 mm 19.1 °C 20.3 °C 20 °C 19.5 °C 0 cm 0 min 0 W/m²
06:42 13.3 °C 6.2 °C 62 % 11 km/h (19 km/h) 0 mm0 mm 19.1 °C 20.3 °C 20 °C 19.5 °C 0 cm 0 min 0 W/m²
06:36 13.4 °C 6.3 °C 62 % 10 km/h (21 km/h) 0 mm0 mm 19.1 °C 20.3 °C 20 °C 19.5 °C 0 cm 0 min 0 W/m²
06:30 13.3 °C 6.2 °C 62 % 11 km/h (21 km/h) 0 mm0 mm 19.2 °C 20.4 °C 20 °C 19.5 °C 0 cm 0 min 0 W/m²
06:24 13.6 °C 6.2 °C 61 % 14 km/h (23 km/h) 0 mm0 mm 19.2 °C 20.4 °C 20 °C 19.5 °C 0 cm 0 min 0 W/m²
06:18 14.1 °C 6.4 °C 60 % 15 km/h (23 km/h) 0 mm0 mm 19.2 °C 20.4 °C 20 °C 19.5 °C 0 cm 0 min 0 W/m²
06:12 14.2 °C 6.3 °C 59 % 14 km/h (23 km/h) 0 mm0 mm 19.3 °C 20.4 °C 20 °C 19.5 °C 0 cm 0 min 0 W/m²
06:06 14.2 °C 6.3 °C 59 % 14 km/h (25 km/h) 0 mm0 mm 19.3 °C 20.4 °C 20 °C 19.5 °C 0 cm 0 min 0 W/m²
06:00 14.3 °C 6.4 °C 59 % 14 km/h (25 km/h) 0 mm0 mm 19.3 °C 20.4 °C 20 °C 19.5 °C 0 cm 0 min 0 W/m²
05:54 13.4 °C 6.5 °C 63 % 12 km/h (24 km/h) 0 mm0 mm 19.4 °C 20.5 °C 20 °C 19.5 °C 0 cm 0 min 0 W/m²
05:48 13.1 °C 6.4 °C 64 % 12 km/h (19 km/h) 0 mm0 mm 19.4 °C 20.5 °C 20 °C 19.5 °C 0 cm 0 min 0 W/m²
05:42 13 °C 6.6 °C 65 % 11 km/h (15 km/h) 0 mm0 mm 19.4 °C 20.5 °C 20 °C 19.5 °C 0 cm 0 min 0 W/m²
05:36 13 °C 6.8 °C 66 % 12 km/h (17 km/h) 0 mm0 mm 19.5 °C 20.5 °C 20 °C 19.5 °C 0 cm 0 min 0 W/m²
05:30 13 °C 6.8 °C 66 % 12 km/h (17 km/h) 0 mm0 mm 19.5 °C 20.5 °C 20 °C 19.5 °C 0 cm 0 min 0 W/m²
05:24 12.9 °C 6.7 °C 66 % 12 km/h (17 km/h) 0 mm0 mm 19.5 °C 20.6 °C 20 °C 19.5 °C 0 cm 0 min 0 W/m²
05:18 13.1 °C 6.9 °C 66 % 12 km/h (17 km/h) 0 mm0 mm 19.6 °C 20.6 °C 20 °C 19.5 °C 0 cm 0 min 0 W/m²
05:12 13.1 °C 6.9 °C 66 % 13 km/h (19 km/h) 0 mm0 mm 19.6 °C 20.6 °C 20 °C 19.5 °C 0 cm 0 min 0 W/m²
05:06 13.3 °C 7.1 °C 66 % 12 km/h (22 km/h) 0 mm0 mm 19.6 °C 20.6 °C 20 °C 19.5 °C 0 cm 0 min 0 W/m²
05:00 13.4 °C 6.7 °C 64 % 11 km/h (20 km/h) 0 mm0 mm 19.6 °C 20.6 °C 20 °C 19.5 °C 0 cm 0 min 0 W/m²
04:54 13.5 °C 6.8 °C 64 % 13 km/h (21 km/h) 0 mm0 mm 19.7 °C 20.6 °C 20 °C 19.5 °C 0 cm 0 min 0 W/m²
04:48 14 °C 6.8 °C 62 % 14 km/h (24 km/h) 0 mm0 mm 19.7 °C 20.7 °C 20 °C 19.5 °C 0 cm 0 min 0 W/m²
04:42 13.3 °C 6.9 °C 65 % 13 km/h (24 km/h) 0 mm0 mm 19.7 °C 20.7 °C 20 °C 19.5 °C 0 cm 0 min 0 W/m²
04:36 13 °C 7.2 °C 68 % 12 km/h (18 km/h) 0 mm0 mm 19.8 °C 20.7 °C 20 °C 19.5 °C 0 cm 0 min 0 W/m²
04:30 13.1 °C 7.3 °C 68 % 12 km/h (18 km/h) 0 mm0 mm 19.8 °C 20.7 °C 20 °C 19.5 °C 0 cm 0 min 0 W/m²
04:24 13 °C 7.2 °C 68 % 10 km/h (15 km/h) 0 mm0 mm 19.8 °C 20.7 °C 20 °C 19.5 °C 0 cm 0 min 0 W/m²
04:18 13.2 °C 7.2 °C 67 % 10 km/h (15 km/h) 0 mm0 mm 19.9 °C 20.8 °C 20 °C 19.5 °C 0 cm 0 min 0 W/m²
04:12 13.5 °C 7 °C 65 % 8 km/h (12 km/h) 0 mm0 mm 19.9 °C 20.8 °C 20 °C 19.5 °C 0 cm 0 min 0 W/m²
04:06 13.8 °C 6.9 °C 63 % 8 km/h (12 km/h) 0 mm0 mm 19.9 °C 20.8 °C 20 °C 19.5 °C 0 cm 0 min 0 W/m²
04:00 13.9 °C 7.2 °C 64 % 10 km/h (15 km/h) 0 mm0 mm 20 °C 20.8 °C 20 °C 19.5 °C 0 cm 0 min 0 W/m²
03:54 14.2 °C 7 °C 62 % 9 km/h (15 km/h) 0 mm0 mm 20 °C 20.8 °C 20 °C 19.5 °C 0 cm 0 min 0 W/m²
03:48 13.8 °C 6.9 °C 63 % 5 km/h (13 km/h) 0 mm0 mm 20 °C 20.8 °C 20 °C 19.5 °C 0 cm 0 min 0 W/m²
03:42 13.7 °C 7 °C 64 % 2 km/h (4 km/h) 0 mm0 mm 20.1 °C 20.8 °C 20 °C 19.5 °C 0 cm 0 min 0 W/m²
03:36 13.9 °C 7 °C 63 % 3 km/h (5 km/h) 0 mm0 mm 20.1 °C 20.9 °C 20 °C 19.5 °C 0 cm 0 min 0 W/m²
03:30 14 °C 7.3 °C 64 % 3 km/h (5 km/h) 0 mm0 mm 20.1 °C 20.9 °C 20 °C 19.5 °C 0 cm 0 min 0 W/m²
03:24 14.1 °C 7.2 °C 63 % 3 km/h (5 km/h) 0 mm0 mm 20.2 °C 20.9 °C 20 °C 19.5 °C 0 cm 0 min 0 W/m²
03:18 14.5 °C 7.1 °C 61 % 0 km/h (4 km/h) 0 mm0 mm 20.2 °C 20.9 °C 20 °C 19.5 °C 0 cm 0 min 0 W/m²
03:12 15 °C 7 °C 59 % 3 km/h (12 km/h) 0 mm0 mm 20.3 °C 20.9 °C 20 °C 19.5 °C 0 cm 0 min 0 W/m²
03:06 15.3 °C 7.1 °C 58 % 5 km/h (12 km/h) 0 mm0 mm 20.3 °C 21 °C 20 °C 19.5 °C 0 cm 0 min 0 W/m²
03:00 15.1 °C 6.9 °C 58 % 4 km/h (7 km/h) 0 mm0 mm 20.3 °C 21 °C 20 °C 19.5 °C 0 cm 0 min 0 W/m²
02:54 14.9 °C 6.7 °C 58 % 7 km/h (14 km/h) 0 mm0 mm 20.4 °C 21 °C 20 °C 19.5 °C 0 cm 0 min 0 W/m²
02:48 14.8 °C 7.1 °C 60 % 10 km/h (14 km/h) 0 mm0 mm 20.4 °C 21 °C 20 °C 19.5 °C 0 cm 0 min 0 W/m²
02:42 15 °C 7 °C 59 % 9 km/h (17 km/h) 0 mm0 mm 20.4 °C 21 °C 20 °C 19.5 °C 0 cm 0 min 0 W/m²
02:36 15 °C 7 °C 59 % 10 km/h (17 km/h) 0 mm0 mm 20.5 °C 21 °C 20 °C 19.5 °C 0 cm 0 min 0 W/m²
02:30 15.1 °C 7.1 °C 59 % 11 km/h (17 km/h) 0 mm0 mm 20.5 °C 21.1 °C 20 °C 19.5 °C 0 cm 0 min 0 W/m²
02:24 15 °C 7 °C 59 % 12 km/h (17 km/h) 0 mm0 mm 20.5 °C 21.1 °C 20 °C 19.5 °C 0 cm 0 min 0 W/m²
02:18 14.8 °C 7.3 °C 61 % 13 km/h (18 km/h) 0 mm0 mm 20.6 °C 21.1 °C 20 °C 19.5 °C 0 cm 0 min 0 W/m²
02:12 14.8 °C 7.3 °C 61 % 12 km/h (18 km/h) 0 mm0 mm 20.6 °C 21.1 °C 20 °C 19.5 °C 0 cm 0 min 0 W/m²
02:06 14.9 °C 7.2 °C 60 % 12 km/h (16 km/h) 0 mm0 mm 20.6 °C 21.1 °C 20 °C 19.5 °C 0 cm 0 min 0 W/m²
02:00 15 °C 7.3 °C 60 % 11 km/h (15 km/h) 0 mm0 mm 20.7 °C 21.1 °C 20 °C 19.5 °C 0 cm 0 min 0 W/m²
01:54 15.1 °C 7.1 °C 59 % 12 km/h (18 km/h) 0 mm0 mm 20.7 °C 21.1 °C 20 °C 19.5 °C 0 cm 0 min 0 W/m²
01:48 15.2 °C 7.2 °C 59 % 13 km/h (18 km/h) 0 mm0 mm 20.7 °C 21.2 °C 20 °C 19.5 °C 0 cm 0 min 0 W/m²
01:42 15.5 °C 7 °C 57 % 12 km/h (17 km/h) 0 mm0 mm 20.8 °C 21.2 °C 19.9 °C 19.5 °C 0 cm 0 min 0 W/m²
01:36 15.3 °C 7.1 °C 58 % 11 km/h (18 km/h) 0 mm0 mm 20.8 °C 21.2 °C 19.9 °C 19.5 °C 0 cm 0 min 0 W/m²
01:30 15.5 °C 7 °C 57 % 10 km/h (18 km/h) 0 mm0 mm 20.8 °C 21.2 °C 19.9 °C 19.5 °C 0 cm 0 min 0 W/m²
01:24 15.4 °C 7.2 °C 58 % 10 km/h (15 km/h) 0 mm0 mm 20.9 °C 21.2 °C 19.9 °C 19.5 °C 0 cm 0 min 0 W/m²
01:18 15.4 °C 7.2 °C 58 % 10 km/h (15 km/h) 0 mm0 mm 20.9 °C 21.2 °C 19.9 °C 19.5 °C 0 cm 0 min 0 W/m²
01:12 15.4 °C 7.4 °C 59 % 10 km/h (15 km/h) 0 mm0 mm 20.9 °C 21.2 °C 19.9 °C 19.5 °C 0 cm 0 min 0 W/m²
01:06 15.7 °C 7.2 °C 57 % 10 km/h (14 km/h) 0 mm0 mm 21 °C 21.2 °C 19.9 °C 19.5 °C 0 cm 0 min 0 W/m²
01:00 16 °C 7 °C 55 % 10 km/h (14 km/h) 0 mm0 mm 21 °C 21.3 °C 19.9 °C 19.5 °C 0 cm 0 min 0 W/m²
00:54 16.2 °C 7.1 °C 55 % 10 km/h (15 km/h) 0 mm0 mm 21.1 °C 21.3 °C 19.9 °C 19.5 °C 0 cm 0 min 0 W/m²
00:48 16.3 °C 7 °C 54 % 12 km/h (15 km/h) 0 mm0 mm 21.1 °C 21.3 °C 19.9 °C 19.5 °C 0 cm 0 min 0 W/m²
00:42 16.5 °C 6.9 °C 53 % 11 km/h (15 km/h) 0 mm0 mm 21.2 °C 21.3 °C 19.9 °C 19.5 °C 0 cm 0 min 0 W/m²
00:36 16.4 °C 6.8 °C 53 % 10 km/h (14 km/h) 0 mm0 mm 21.2 °C 21.3 °C 19.9 °C 19.5 °C 0 cm 0 min 0 W/m²
00:30 16.2 °C 7.1 °C 55 % 8 km/h (13 km/h) 0 mm0 mm 21.2 °C 21.3 °C 19.9 °C 19.5 °C 0 cm 0 min 0 W/m²
00:24 16.5 °C 7.2 °C 54 % 8 km/h (12 km/h) 0 mm0 mm 21.3 °C 21.3 °C 19.9 °C 19.5 °C 0 cm 0 min 0 W/m²
00:18 16.8 °C 7.2 °C 53 % 9 km/h (13 km/h) 0 mm0 mm 21.3 °C 21.3 °C 19.9 °C 19.5 °C 0 cm 0 min 0 W/m²
00:12 16.8 °C 7.4 °C 54 % 9 km/h (13 km/h) 0 mm0 mm 21.3 °C 21.3 °C 19.9 °C 19.5 °C 0 cm 0 min 0 W/m²
00:06 16.9 °C 7.3 °C 53 % 9 km/h (12 km/h) 0 mm0 mm 21.4 °C 21.3 °C 19.9 °C 19.5 °C 0 cm 0 min 0 W/m²
00:00 16.9 °C 7.3 °C 53 % 9 km/h (12 km/h) 0 mm0 mm 21.4 °C 21.3 °C 19.9 °C 19.5 °C 0 cm 0 min 0 W/m²

Données via Météo-France

Relevés météo à Embrun

Cette page rassemble les observations de la station de Embrun : température, humidité, vent, précipitations et pression atmosphérique. Les graphiques facilitent le suivi de la journée, tandis que le tableau donne accès aux mesures horaires et infra-horaires disponibles.

Pour replacer ces mesures dans leur contexte, consultez la climatologie de Embrun ainsi que ses normales et records. Retrouvez aussi la carte des observations météo en temps réel.